sensor_id;sensor_type;location;lat;lon;timestamp;pressure;altitude;pressure_sealevel;temperature;humidity
27144;BME280;14672;50.250;8.312;2024-02-26T00:02:19;97030.13;;;11.24;51.97
27144;BME280;14672;50.250;8.312;2024-02-26T00:04:45;97025.69;;;11.17;52.39
27144;BME280;14672;50.250;8.312;2024-02-26T00:07:11;97026.78;;;11.31;51.79
27144;BME280;14672;50.250;8.312;2024-02-26T00:09:36;97009.47;;;11.29;52.10
27144;BME280;14672;50.250;8.312;2024-02-26T00:12:03;97005.91;;;11.34;52.21
27144;BME280;14672;50.250;8.312;2024-02-26T00:14:31;97009.72;;;11.25;52.54
27144;BME280;14672;50.250;8.312;2024-02-26T00:16:57;97002.22;;;11.28;52.90
27144;BME280;14672;50.250;8.312;2024-02-26T00:19:22;97000.16;;;11.28;52.97
27144;BME280;14672;50.250;8.312;2024-02-26T00:21:48;96992.91;;;11.22;53.07
27144;BME280;14672;50.250;8.312;2024-02-26T00:24:14;96992.13;;;11.21;52.93
27144;BME280;14672;50.250;8.312;2024-02-26T00:26:39;96993.94;;;11.24;52.89
27144;BME280;14672;50.250;8.312;2024-02-26T00:29:05;96989.53;;;11.23;52.38
27144;BME280;14672;50.250;8.312;2024-02-26T00:31:31;96986.75;;;11.29;52.34
27144;BME280;14672;50.250;8.312;2024-02-26T00:33:57;96981.34;;;11.37;51.99
27144;BME280;14672;50.250;8.312;2024-02-26T00:36:23;96967.63;;;11.35;52.40
27144;BME280;14672;50.250;8.312;2024-02-26T00:38:48;96957.28;;;11.26;53.32
27144;BME280;14672;50.250;8.312;2024-02-26T00:41:20;96954.44;;;11.26;53.57
27144;BME280;14672;50.250;8.312;2024-02-26T00:43:46;96946.66;;;11.21;53.97
27144;BME280;14672;50.250;8.312;2024-02-26T00:46:12;96935.03;;;11.25;53.80
27144;BME280;14672;50.250;8.312;2024-02-26T00:48:38;96928.00;;;11.09;54.73
27144;BME280;14672;50.250;8.312;2024-02-26T00:51:05;96934.47;;;11.10;54.66
27144;BME280;14672;50.250;8.312;2024-02-26T00:53:31;96940.66;;;11.08;55.17
27144;BME280;14672;50.250;8.312;2024-02-26T00:55:57;96938.34;;;11.12;55.23
27144;BME280;14672;50.250;8.312;2024-02-26T00:58:27;96947.16;;;11.14;54.74
27144;BME280;14672;50.250;8.312;2024-02-26T01:00:53;96945.06;;;11.09;55.09
27144;BME280;14672;50.250;8.312;2024-02-26T01:03:19;96940.34;;;11.01;56.13
27144;BME280;14672;50.250;8.312;2024-02-26T01:05:45;96924.84;;;10.96;56.28
27144;BME280;14672;50.250;8.312;2024-02-26T01:08:11;96913.22;;;10.94;56.09
27144;BME280;14672;50.250;8.312;2024-02-26T01:10:37;96922.81;;;11.02;55.36
27144;BME280;14672;50.250;8.312;2024-02-26T01:13:03;96922.56;;;11.06;54.89
27144;BME280;14672;50.250;8.312;2024-02-26T01:15:29;96918.47;;;11.18;53.67
27144;BME280;14672;50.250;8.312;2024-02-26T01:17:54;96930.63;;;11.18;52.81
27144;BME280;14672;50.250;8.312;2024-02-26T01:20:20;96937.38;;;11.26;52.41
27144;BME280;14672;50.250;8.312;2024-02-26T01:22:46;96937.06;;;11.19;53.31
27144;BME280;14672;50.250;8.312;2024-02-26T01:25:12;96937.06;;;11.13;54.05
27144;BME280;14672;50.250;8.312;2024-02-26T01:27:39;96936.53;;;11.15;53.99
27144;BME280;14672;50.250;8.312;2024-02-26T01:30:07;96922.63;;;11.22;53.06
27144;BME280;14672;50.250;8.312;2024-02-26T01:32:33;96924.72;;;11.22;53.46
27144;BME280;14672;50.250;8.312;2024-02-26T01:34:59;96932.94;;;11.20;53.87
27144;BME280;14672;50.250;8.312;2024-02-26T01:37:24;96919.81;;;11.22;53.88
27144;BME280;14672;50.250;8.312;2024-02-26T01:39:50;96928.59;;;11.24;53.76
27144;BME280;14672;50.250;8.312;2024-02-26T01:42:16;96930.13;;;11.25;53.64
27144;BME280;14672;50.250;8.312;2024-02-26T01:44:42;96925.19;;;11.20;53.15
27144;BME280;14672;50.250;8.312;2024-02-26T01:47:11;96945.38;;;11.28;52.49
27144;BME280;14672;50.250;8.312;2024-02-26T01:49:37;96944.94;;;11.41;52.13
27144;BME280;14672;50.250;8.312;2024-02-26T01:52:06;96942.09;;;11.41;51.79
27144;BME280;14672;50.250;8.312;2024-02-26T01:54:35;96944.38;;;11.37;51.63
27144;BME280;14672;50.250;8.312;2024-02-26T01:57:03;96931.25;;;11.45;51.34
27144;BME280;14672;50.250;8.312;2024-02-26T01:59:29;96937.97;;;11.42;51.69
27144;BME280;14672;50.250;8.312;2024-02-26T02:01:58;96946.47;;;11.42;51.68
27144;BME280;14672;50.250;8.312;2024-02-26T02:04:24;96949.09;;;11.45;51.76
27144;BME280;14672;50.250;8.312;2024-02-26T02:06:52;96948.00;;;11.43;52.20
27144;BME280;14672;50.250;8.312;2024-02-26T02:09:18;96938.22;;;11.44;52.38
27144;BME280;14672;50.250;8.312;2024-02-26T02:11:44;96944.63;;;11.33;52.87
27144;BME280;14672;50.250;8.312;2024-02-26T02:14:10;96946.72;;;11.38;52.64
27144;BME280;14672;50.250;8.312;2024-02-26T02:16:36;96938.22;;;11.38;52.25
27144;BME280;14672;50.250;8.312;2024-02-26T02:19:02;96939.22;;;11.35;52.27
27144;BME280;14672;50.250;8.312;2024-02-26T02:21:27;96946.72;;;11.38;52.49
27144;BME280;14672;50.250;8.312;2024-02-26T02:23:53;96936.59;;;11.31;53.09
27144;BME280;14672;50.250;8.312;2024-02-26T02:26:19;96932.16;;;11.19;53.76
27144;BME280;14672;50.250;8.312;2024-02-26T02:28:46;96944.03;;;11.12;53.65
27144;BME280;14672;50.250;8.312;2024-02-26T02:31:13;96938.88;;;11.16;53.80
27144;BME280;14672;50.250;8.312;2024-02-26T02:33:39;96941.22;;;11.18;53.95
27144;BME280;14672;50.250;8.312;2024-02-26T02:36:05;96939.66;;;11.17;53.90
27144;BME280;14672;50.250;8.312;2024-02-26T02:38:38;96956.66;;;11.11;52.73
27144;BME280;14672;50.250;8.312;2024-02-26T02:41:14;96953.88;;;11.17;52.71
27144;BME280;14672;50.250;8.312;2024-02-26T02:43:40;96961.59;;;11.16;52.76
27144;BME280;14672;50.250;8.312;2024-02-26T02:46:05;96966.81;;;11.23;52.70
27144;BME280;14672;50.250;8.312;2024-02-26T02:48:31;96963.97;;;11.23;52.60
27144;BME280;14672;50.250;8.312;2024-02-26T02:50:57;96971.50;;;11.26;52.26
27144;BME280;14672;50.250;8.312;2024-02-26T02:53:22;96960.88;;;11.21;52.04
27144;BME280;14672;50.250;8.312;2024-02-26T02:55:48;96968.13;;;11.22;52.17
27144;BME280;14672;50.250;8.312;2024-02-26T02:58:14;96964.13;;;11.03;52.36
27144;BME280;14672;50.250;8.312;2024-02-26T03:00:40;96980.28;;;11.28;52.27
27144;BME280;14672;50.250;8.312;2024-02-26T03:03:05;96979.50;;;11.28;52.21
27144;BME280;14672;50.250;8.312;2024-02-26T03:05:31;96976.16;;;11.29;52.29
27144;BME280;14672;50.250;8.312;2024-02-26T03:07:57;96979.78;;;11.36;52.53
27144;BME280;14672;50.250;8.312;2024-02-26T03:10:23;96973.03;;;11.27;52.76
27144;BME280;14672;50.250;8.312;2024-02-26T03:12:49;96970.97;;;11.22;52.55
27144;BME280;14672;50.250;8.312;2024-02-26T03:15:16;96971.50;;;11.32;52.71
27144;BME280;14672;50.250;8.312;2024-02-26T03:17:41;96968.41;;;11.36;52.85
27144;BME280;14672;50.250;8.312;2024-02-26T03:20:08;96970.97;;;11.28;52.95
27144;BME280;14672;50.250;8.312;2024-02-26T03:22:39;96972.78;;;11.31;52.88
27144;BME280;14672;50.250;8.312;2024-02-26T03:25:06;96970.97;;;11.22;53.39
27144;BME280;14672;50.250;8.312;2024-02-26T03:27:32;96966.34;;;11.30;53.25
27144;BME280;14672;50.250;8.312;2024-02-26T03:29:58;96972.78;;;11.25;53.62
27144;BME280;14672;50.250;8.312;2024-02-26T03:32:26;96982.66;;;10.93;53.86
27144;BME280;14672;50.250;8.312;2024-02-26T03:34:52;96965.13;;;11.00;53.66
27144;BME280;14672;50.250;8.312;2024-02-26T03:37:21;96973.94;;;11.02;53.76
27144;BME280;14672;50.250;8.312;2024-02-26T03:39:47;96967.25;;;11.11;53.92
27144;BME280;14672;50.250;8.312;2024-02-26T03:42:13;96964.69;;;11.13;53.69
27144;BME280;14672;50.250;8.312;2024-02-26T03:44:38;96978.81;;;10.96;54.12
27144;BME280;14672;50.250;8.312;2024-02-26T03:47:04;96977.81;;;11.05;53.92
27144;BME280;14672;50.250;8.312;2024-02-26T03:49:30;96984.31;;;11.11;53.99
27144;BME280;14672;50.250;8.312;2024-02-26T03:51:55;96980.72;;;11.16;53.94
27144;BME280;14672;50.250;8.312;2024-02-26T03:54:22;96992.47;;;10.92;54.40
27144;BME280;14672;50.250;8.312;2024-02-26T03:56:47;96994.13;;;11.10;54.37
27144;BME280;14672;50.250;8.312;2024-02-26T03:59:13;96987.75;;;10.83;54.73
27144;BME280;14672;50.250;8.312;2024-02-26T04:01:39;96991.44;;;10.90;55.21
27144;BME280;14672;50.250;8.312;2024-02-26T04:04:04;96988.88;;;10.97;55.51
27144;BME280;14672;50.250;8.312;2024-02-26T04:06:30;96991.00;;;11.02;55.46
27144;BME280;14672;50.250;8.312;2024-02-26T04:08:56;96999.72;;;10.93;55.69
27144;BME280;14672;50.250;8.312;2024-02-26T04:11:21;96992.00;;;10.99;55.78
27144;BME280;14672;50.250;8.312;2024-02-26T04:13:47;96986.34;;;11.05;55.67
27144;BME280;14672;50.250;8.312;2024-02-26T04:16:15;96989.91;;;10.94;56.54
27144;BME280;14672;50.250;8.312;2024-02-26T04:18:42;96990.06;;;10.79;57.61
27144;BME280;14672;50.250;8.312;2024-02-26T04:21:08;96994.50;;;10.86;57.55
27144;BME280;14672;50.250;8.312;2024-02-26T04:23:33;96998.56;;;10.79;58.25
27144;BME280;14672;50.250;8.312;2024-02-26T04:25:59;97000.44;;;10.82;58.66
27144;BME280;14672;50.250;8.312;2024-02-26T04:28:25;96997.25;;;10.75;59.32
27144;BME280;14672;50.250;8.312;2024-02-26T04:30:51;96992.16;;;10.84;59.06
27144;BME280;14672;50.250;8.312;2024-02-26T04:33:17;96992.94;;;10.85;59.60
27144;BME280;14672;50.250;8.312;2024-02-26T04:35:43;96996.53;;;10.80;59.84
27144;BME280;14672;50.250;8.312;2024-02-26T04:38:09;96998.56;;;10.79;60.24
27144;BME280;14672;50.250;8.312;2024-02-26T04:40:35;96998.75;;;10.65;61.09
27144;BME280;14672;50.250;8.312;2024-02-26T04:43:00;97000.84;;;10.70;61.34
27144;BME280;14672;50.250;8.312;2024-02-26T04:45:26;97000.63;;;10.73;61.89
27144;BME280;14672;50.250;8.312;2024-02-26T04:47:52;96992.81;;;10.63;61.61
27144;BME280;14672;50.250;8.312;2024-02-26T04:50:17;97001.25;;;10.57;62.26
27144;BME280;14672;50.250;8.312;2024-02-26T04:52:43;97003.78;;;10.50;62.65
27144;BME280;14672;50.250;8.312;2024-02-26T04:55:09;97002.16;;;10.43;62.49
27144;BME280;14672;50.250;8.312;2024-02-26T04:57:35;97010.69;;;10.43;63.42
27144;BME280;14672;50.250;8.312;2024-02-26T05:00:00;97011.09;;;10.30;64.05
27144;BME280;14672;50.250;8.312;2024-02-26T05:02:26;97011.22;;;10.16;64.05
27144;BME280;14672;50.250;8.312;2024-02-26T05:04:52;97003.88;;;10.29;63.96
27144;BME280;14672;50.250;8.312;2024-02-26T05:07:18;97012.09;;;10.27;64.79
27144;BME280;14672;50.250;8.312;2024-02-26T05:09:46;97010.09;;;10.33;64.65
27144;BME280;14672;50.250;8.312;2024-02-26T05:12:12;97007.09;;;10.43;64.33
27144;BME280;14672;50.250;8.312;2024-02-26T05:14:37;97007.25;;;10.33;64.89
27144;BME280;14672;50.250;8.312;2024-02-26T05:17:03;97007.03;;;10.37;64.81
27144;BME280;14672;50.250;8.312;2024-02-26T05:19:29;97008.63;;;10.44;64.89
27144;BME280;14672;50.250;8.312;2024-02-26T05:21:54;97002.84;;;10.32;65.45
27144;BME280;14672;50.250;8.312;2024-02-26T05:24:20;96999.75;;;10.30;65.61
27144;BME280;14672;50.250;8.312;2024-02-26T05:26:48;97011.94;;;10.36;65.84
27144;BME280;14672;50.250;8.312;2024-02-26T05:29:14;97001.53;;;10.28;65.78
27144;BME280;14672;50.250;8.312;2024-02-26T05:31:42;97014.44;;;10.29;65.80
27144;BME280;14672;50.250;8.312;2024-02-26T05:34:11;97008.44;;;10.21;66.39
27144;BME280;14672;50.250;8.312;2024-02-26T05:36:37;97014.13;;;10.21;66.72
27144;BME280;14672;50.250;8.312;2024-02-26T05:39:02;97013.34;;;10.21;66.84
27144;BME280;14672;50.250;8.312;2024-02-26T05:41:29;97012.97;;;10.13;67.65
27144;BME280;14672;50.250;8.312;2024-02-26T05:43:55;97014.75;;;10.11;67.40
27144;BME280;14672;50.250;8.312;2024-02-26T05:46:22;97016.66;;;10.19;67.49
27144;BME280;14672;50.250;8.312;2024-02-26T05:48:51;97025.09;;;10.14;67.32
27144;BME280;14672;50.250;8.312;2024-02-26T05:51:17;97021.78;;;10.15;67.27
27144;BME280;14672;50.250;8.312;2024-02-26T05:53:43;97019.91;;;10.12;67.59
27144;BME280;14672;50.250;8.312;2024-02-26T05:56:09;97028.72;;;10.14;67.43
27144;BME280;14672;50.250;8.312;2024-02-26T05:58:35;97026.59;;;10.09;68.10
27144;BME280;14672;50.250;8.312;2024-02-26T06:01:01;97041.56;;;10.10;68.16
27144;BME280;14672;50.250;8.312;2024-02-26T06:03:27;97032.28;;;10.09;68.08
27144;BME280;14672;50.250;8.312;2024-02-26T06:05:52;97042.44;;;9.96;68.56
27144;BME280;14672;50.250;8.312;2024-02-26T06:08:18;97036.28;;;9.97;68.48
27144;BME280;14672;50.250;8.312;2024-02-26T06:10:44;97037.09;;;10.03;68.78
27144;BME280;14672;50.250;8.312;2024-02-26T06:13:10;97036.56;;;9.99;69.14
27144;BME280;14672;50.250;8.312;2024-02-26T06:15:35;97035.81;;;10.04;68.88
27144;BME280;14672;50.250;8.312;2024-02-26T06:18:01;97036.44;;;10.14;68.71
27144;BME280;14672;50.250;8.312;2024-02-26T06:20:27;97034.78;;;10.02;69.20
27144;BME280;14672;50.250;8.312;2024-02-26T06:22:53;97048.56;;;9.88;70.39
27144;BME280;14672;50.250;8.312;2024-02-26T06:25:18;97053.03;;;9.95;70.17
27144;BME280;14672;50.250;8.312;2024-02-26T06:27:44;97055.66;;;9.99;69.63
27144;BME280;14672;50.250;8.312;2024-02-26T06:30:10;97056.69;;;10.01;69.47
27144;BME280;14672;50.250;8.312;2024-02-26T06:32:37;97058.47;;;9.99;69.58
27144;BME280;14672;50.250;8.312;2024-02-26T06:35:03;97064.94;;;9.99;69.59
27144;BME280;14672;50.250;8.312;2024-02-26T06:37:32;97066.22;;;9.98;69.55
27144;BME280;14672;50.250;8.312;2024-02-26T06:40:00;97067.25;;;10.01;69.59
27144;BME280;14672;50.250;8.312;2024-02-26T06:42:25;97071.91;;;10.04;69.80
27144;BME280;14672;50.250;8.312;2024-02-26T06:44:51;97072.00;;;10.09;69.84
27144;BME280;14672;50.250;8.312;2024-02-26T06:47:17;97078.44;;;10.10;70.23
27144;BME280;14672;50.250;8.312;2024-02-26T06:49:43;97075.84;;;10.06;69.59
27144;BME280;14672;50.250;8.312;2024-02-26T06:52:09;97079.94;;;10.05;70.73
27144;BME280;14672;50.250;8.312;2024-02-26T06:54:35;97084.34;;;10.06;70.71
27144;BME280;14672;50.250;8.312;2024-02-26T06:57:01;97086.63;;;10.02;71.51
27144;BME280;14672;50.250;8.312;2024-02-26T06:59:27;97094.41;;;10.07;71.45
27144;BME280;14672;50.250;8.312;2024-02-26T07:01:53;97087.19;;;10.06;70.76
27144;BME280;14672;50.250;8.312;2024-02-26T07:04:20;97100.50;;;10.00;70.75
27144;BME280;14672;50.250;8.312;2024-02-26T07:06:46;97096.41;;;10.01;71.14
27144;BME280;14672;50.250;8.312;2024-02-26T07:09:13;97105.75;;;10.07;71.31
27144;BME280;14672;50.250;8.312;2024-02-26T07:11:39;97102.72;;;10.11;70.69
27144;BME280;14672;50.250;8.312;2024-02-26T07:14:09;97107.31;;;10.08;69.97
27144;BME280;14672;50.250;8.312;2024-02-26T07:16:36;97110.38;;;10.05;69.71
27144;BME280;14672;50.250;8.312;2024-02-26T07:19:03;97114.31;;;10.13;69.72
27144;BME280;14672;50.250;8.312;2024-02-26T07:21:29;97110.03;;;10.17;69.31
27144;BME280;14672;50.250;8.312;2024-02-26T07:23:55;97117.59;;;10.26;69.20
27144;BME280;14672;50.250;8.312;2024-02-26T07:26:20;97123.72;;;10.19;68.57
27144;BME280;14672;50.250;8.312;2024-02-26T07:28:46;97125.13;;;10.09;69.23
27144;BME280;14672;50.250;8.312;2024-02-26T07:31:12;97130.16;;;10.19;69.15
27144;BME280;14672;50.250;8.312;2024-02-26T07:33:38;97132.50;;;10.01;68.76
27144;BME280;14672;50.250;8.312;2024-02-26T07:36:04;97130.34;;;9.75;69.17
27144;BME280;14672;50.250;8.312;2024-02-26T07:38:30;97129.78;;;9.91;69.02
27144;BME280;14672;50.250;8.312;2024-02-26T07:40:55;97136.03;;;9.75;68.74
27144;BME280;14672;50.250;8.312;2024-02-26T07:43:24;97134.97;;;9.93;68.94
27144;BME280;14672;50.250;8.312;2024-02-26T07:45:50;97142.34;;;10.05;68.32
27144;BME280;14672;50.250;8.312;2024-02-26T07:48:16;97152.91;;;10.05;69.08
27144;BME280;14672;50.250;8.312;2024-02-26T07:50:41;97145.75;;;10.09;69.34
27144;BME280;14672;50.250;8.312;2024-02-26T07:53:07;97150.25;;;10.16;68.49
27144;BME280;14672;50.250;8.312;2024-02-26T07:55:33;97149.25;;;10.19;68.58
27144;BME280;14672;50.250;8.312;2024-02-26T07:57:59;97146.63;;;10.15;68.27
27144;BME280;14672;50.250;8.312;2024-02-26T08:00:24;97144.50;;;10.10;67.89
27144;BME280;14672;50.250;8.312;2024-02-26T08:02:50;97150.88;;;10.05;67.81
27144;BME280;14672;50.250;8.312;2024-02-26T08:05:16;97147.59;;;10.12;67.87
27144;BME280;14672;50.250;8.312;2024-02-26T08:07:41;97152.59;;;10.17;68.65
27144;BME280;14672;50.250;8.312;2024-02-26T08:10:08;97155.06;;;10.30;68.20
27144;BME280;14672;50.250;8.312;2024-02-26T08:12:34;97151.66;;;10.26;68.34
27144;BME280;14672;50.250;8.312;2024-02-26T08:15:00;97154.72;;;10.22;69.92
27144;BME280;14672;50.250;8.312;2024-02-26T08:17:26;97155.84;;;10.30;69.17
27144;BME280;14672;50.250;8.312;2024-02-26T08:19:53;97171.00;;;10.27;69.79
27144;BME280;14672;50.250;8.312;2024-02-26T08:22:19;97163.13;;;10.37;68.77
27144;BME280;14672;50.250;8.312;2024-02-26T08:24:44;97163.78;;;10.26;67.81
27144;BME280;14672;50.250;8.312;2024-02-26T08:27:10;97171.75;;;10.22;67.96
27144;BME280;14672;50.250;8.312;2024-02-26T08:29:36;97176.50;;;10.31;67.66
27144;BME280;14672;50.250;8.312;2024-02-26T08:32:02;97180.97;;;10.17;68.29
27144;BME280;14672;50.250;8.312;2024-02-26T08:34:28;97181.94;;;10.14;67.70
27144;BME280;14672;50.250;8.312;2024-02-26T08:36:54;97177.81;;;10.15;67.81
27144;BME280;14672;50.250;8.312;2024-02-26T08:39:19;97182.75;;;10.15;68.40
27144;BME280;14672;50.250;8.312;2024-02-26T08:41:46;97187.63;;;10.14;68.36
27144;BME280;14672;50.250;8.312;2024-02-26T08:44:12;97182.53;;;10.18;68.45
27144;BME280;14672;50.250;8.312;2024-02-26T08:46:37;97181.44;;;10.16;68.78
27144;BME280;14672;50.250;8.312;2024-02-26T08:49:04;97190.00;;;10.01;69.77
27144;BME280;14672;50.250;8.312;2024-02-26T08:51:30;97175.00;;;9.95;69.00
27144;BME280;14672;50.250;8.312;2024-02-26T08:53:56;97188.19;;;9.98;69.86
27144;BME280;14672;50.250;8.312;2024-02-26T08:56:22;97182.78;;;10.20;69.38
27144;BME280;14672;50.250;8.312;2024-02-26T08:58:48;97187.06;;;10.30;69.07
27144;BME280;14672;50.250;8.312;2024-02-26T09:01:19;97191.44;;;10.31;69.35
27144;BME280;14672;50.250;8.312;2024-02-26T09:03:45;97189.59;;;10.28;69.17
27144;BME280;14672;50.250;8.312;2024-02-26T09:06:15;97195.00;;;10.26;69.66
27144;BME280;14672;50.250;8.312;2024-02-26T09:08:43;97198.81;;;10.44;68.91
27144;BME280;14672;50.250;8.312;2024-02-26T09:11:09;97194.44;;;10.43;68.75
27144;BME280;14672;50.250;8.312;2024-02-26T09:13:35;97198.41;;;10.30;69.23
27144;BME280;14672;50.250;8.312;2024-02-26T09:16:01;97197.13;;;10.31;69.56
27144;BME280;14672;50.250;8.312;2024-02-26T09:18:28;97188.59;;;10.31;69.17
27144;BME280;14672;50.250;8.312;2024-02-26T09:20:54;97192.97;;;10.53;68.99
27144;BME280;14672;50.250;8.312;2024-02-26T09:23:20;97191.38;;;10.72;68.56
27144;BME280;14672;50.250;8.312;2024-02-26T09:25:45;97196.13;;;10.80;69.02
27144;BME280;14672;50.250;8.312;2024-02-26T09:28:11;97194.63;;;10.85;68.81
27144;BME280;14672;50.250;8.312;2024-02-26T09:30:37;97192.22;;;10.78;68.92
27144;BME280;14672;50.250;8.312;2024-02-26T09:33:04;97193.56;;;10.82;69.30
27144;BME280;14672;50.250;8.312;2024-02-26T09:35:30;97194.31;;;10.83;68.72
27144;BME280;14672;50.250;8.312;2024-02-26T09:37:56;97186.84;;;11.11;68.56
27144;BME280;14672;50.250;8.312;2024-02-26T09:40:22;97191.63;;;11.25;69.34
27144;BME280;14672;50.250;8.312;2024-02-26T09:42:52;97196.59;;;11.30;70.02
27144;BME280;14672;50.250;8.312;2024-02-26T09:45:21;97210.34;;;11.38;70.63
27144;BME280;14672;50.250;8.312;2024-02-26T09:47:48;97207.09;;;11.50;70.05
27144;BME280;14672;50.250;8.312;2024-02-26T09:50:18;97208.38;;;11.55;69.12
27144;BME280;14672;50.250;8.312;2024-02-26T09:52:49;97219.50;;;11.53;68.44
27144;BME280;14672;50.250;8.312;2024-02-26T09:55:15;97211.03;;;11.64;67.62
27144;BME280;14672;50.250;8.312;2024-02-26T09:57:45;97216.47;;;11.62;67.43
27144;BME280;14672;50.250;8.312;2024-02-26T10:00:22;97225.25;;;11.58;67.35
27144;BME280;14672;50.250;8.312;2024-02-26T10:02:48;97220.13;;;11.68;67.07
27144;BME280;14672;50.250;8.312;2024-02-26T10:05:17;97222.59;;;11.55;68.22
27144;BME280;14672;50.250;8.312;2024-02-26T10:07:47;97222.84;;;11.51;67.19
27144;BME280;14672;50.250;8.312;2024-02-26T10:10:14;97221.16;;;11.34;68.17
27144;BME280;14672;50.250;8.312;2024-02-26T10:12:40;97218.78;;;11.58;67.56
27144;BME280;14672;50.250;8.312;2024-02-26T10:15:07;97226.38;;;11.41;67.59
27144;BME280;14672;50.250;8.312;2024-02-26T10:17:33;97229.59;;;11.54;67.47
27144;BME280;14672;50.250;8.312;2024-02-26T10:20:13;97233.34;;;11.40;68.44
27144;BME280;14672;50.250;8.312;2024-02-26T10:22:41;97236.47;;;11.42;68.02
27144;BME280;14672;50.250;8.312;2024-02-26T10:25:08;97240.59;;;11.41;67.88
27144;BME280;14672;50.250;8.312;2024-02-26T10:27:34;97242.44;;;11.44;68.14
27144;BME280;14672;50.250;8.312;2024-02-26T10:30:21;97239.66;;;11.55;67.95
27144;BME280;14672;50.250;8.312;2024-02-26T10:32:48;97243.44;;;11.41;67.93
27144;BME280;14672;50.250;8.312;2024-02-26T10:35:16;97239.66;;;11.55;67.88
27144;BME280;14672;50.250;8.312;2024-02-26T10:37:43;97240.09;;;11.42;67.96
27144;BME280;14672;50.250;8.312;2024-02-26T10:40:14;97233.44;;;11.51;68.19
27144;BME280;14672;50.250;8.312;2024-02-26T10:42:41;97233.66;;;11.73;67.48
27144;BME280;14672;50.250;8.312;2024-02-26T10:45:08;97243.91;;;11.65;67.75
27144;BME280;14672;50.250;8.312;2024-02-26T10:47:36;97247.13;;;11.78;67.78
27144;BME280;14672;50.250;8.312;2024-02-26T10:50:04;97243.53;;;11.83;66.89
27144;BME280;14672;50.250;8.312;2024-02-26T10:52:35;97257.69;;;11.72;68.37
27144;BME280;14672;50.250;8.312;2024-02-26T10:55:03;97257.84;;;11.94;67.72
27144;BME280;14672;50.250;8.312;2024-02-26T10:57:40;97262.22;;;11.58;67.58
27144;BME280;14672;50.250;8.312;2024-02-26T11:00:07;97264.16;;;11.72;67.88
27144;BME280;14672;50.250;8.312;2024-02-26T11:02:36;97259.38;;;11.90;67.66
27144;BME280;14672;50.250;8.312;2024-02-26T11:05:06;97268.53;;;12.05;67.56
27144;BME280;14672;50.250;8.312;2024-02-26T11:07:34;97261.03;;;12.07;67.16
27144;BME280;14672;50.250;8.312;2024-02-26T11:10:04;97270.53;;;11.99;66.99
27144;BME280;14672;50.250;8.312;2024-02-26T11:12:32;97275.00;;;12.05;66.81
27144;BME280;14672;50.250;8.312;2024-02-26T11:15:01;97278.50;;;11.89;67.33
27144;BME280;14672;50.250;8.312;2024-02-26T11:17:29;97267.44;;;12.02;67.53
27144;BME280;14672;50.250;8.312;2024-02-26T11:19:58;97266.22;;;12.09;67.21
27144;BME280;14672;50.250;8.312;2024-02-26T11:22:27;97273.22;;;12.13;67.13
27144;BME280;14672;50.250;8.312;2024-02-26T11:24:55;97275.13;;;12.28;66.64
27144;BME280;14672;50.250;8.312;2024-02-26T11:27:34;97275.41;;;12.30;66.21
27144;BME280;14672;50.250;8.312;2024-02-26T11:30:02;97280.84;;;12.33;65.76
27144;BME280;14672;50.250;8.312;2024-02-26T11:32:31;97287.28;;;12.28;65.38
27144;BME280;14672;50.250;8.312;2024-02-26T11:34:58;97279.78;;;12.31;65.99
27144;BME280;14672;50.250;8.312;2024-02-26T11:37:24;97285.19;;;12.23;66.14
27144;BME280;14672;50.250;8.312;2024-02-26T11:39:52;97292.25;;;12.39;65.94
27144;BME280;14672;50.250;8.312;2024-02-26T11:42:24;97293.81;;;12.40;65.84
27144;BME280;14672;50.250;8.312;2024-02-26T11:44:54;97292.25;;;12.39;65.67
27144;BME280;14672;50.250;8.312;2024-02-26T11:47:22;97288.19;;;12.51;65.47
27144;BME280;14672;50.250;8.312;2024-02-26T11:49:49;97283.81;;;12.55;64.91
27144;BME280;14672;50.250;8.312;2024-02-26T11:52:15;97284.63;;;12.67;64.57
27144;BME280;14672;50.250;8.312;2024-02-26T11:54:53;97286.97;;;12.74;65.70
27144;BME280;14672;50.250;8.312;2024-02-26T11:57:30;97294.81;;;12.85;65.89
27144;BME280;14672;50.250;8.312;2024-02-26T12:02:52;97282.16;;;13.02;66.11
27144;BME280;14672;50.250;8.312;2024-02-26T12:05:24;97277.53;;;13.10;66.15
27144;BME280;14672;50.250;8.312;2024-02-26T12:08:05;97270.31;;;13.26;65.48
27144;BME280;14672;50.250;8.312;2024-02-26T12:10:37;97275.28;;;13.42;65.53
27144;BME280;14672;50.250;8.312;2024-02-26T12:13:15;97281.50;;;13.41;65.17
27144;BME280;14672;50.250;8.312;2024-02-26T12:15:58;97283.56;;;13.46;64.45
27144;BME280;14672;50.250;8.312;2024-02-26T12:18:24;97287.97;;;13.47;63.10
27144;BME280;14672;50.250;8.312;2024-02-26T12:21:03;97285.41;;;13.49;63.89
27144;BME280;14672;50.250;8.312;2024-02-26T12:23:30;97277.88;;;13.51;63.01
27144;BME280;14672;50.250;8.312;2024-02-26T12:26:00;97284.38;;;13.69;62.78
27144;BME280;14672;50.250;8.312;2024-02-26T12:28:29;97289.03;;;13.55;62.43
27144;BME280;14672;50.250;8.312;2024-02-26T12:30:56;97287.72;;;13.61;62.28
27144;BME280;14672;50.250;8.312;2024-02-26T12:33:26;97300.72;;;13.68;62.12
27144;BME280;14672;50.250;8.312;2024-02-26T12:35:53;97303.84;;;13.64;62.19
27144;BME280;14672;50.250;8.312;2024-02-26T12:38:19;97313.41;;;13.56;61.89
27144;BME280;14672;50.250;8.312;2024-02-26T12:40:45;97315.75;;;13.63;61.57
27144;BME280;14672;50.250;8.312;2024-02-26T12:43:11;97318.63;;;13.57;61.27
27144;BME280;14672;50.250;8.312;2024-02-26T12:45:43;97318.09;;;13.59;61.50
27144;BME280;14672;50.250;8.312;2024-02-26T12:48:13;97325.59;;;13.62;61.11
27144;BME280;14672;50.250;8.312;2024-02-26T12:50:39;97326.13;;;13.60;61.39
27144;BME280;14672;50.250;8.312;2024-02-26T12:53:05;97317.31;;;13.75;61.20
27144;BME280;14672;50.250;8.312;2024-02-26T12:55:32;97310.84;;;13.80;61.30
27144;BME280;14672;50.250;8.312;2024-02-26T12:58:00;97315.50;;;13.83;60.96
27144;BME280;14672;50.250;8.312;2024-02-26T13:00:27;97324.34;;;13.85;60.74
27144;BME280;14672;50.250;8.312;2024-02-26T13:02:56;97326.16;;;13.77;60.81